sensor_id;sensor_type;location;lat;lon;timestamp;pressure;altitude;pressure_sealevel;temperature;humidity
43436;BME280;36399;51.444;-2.018;2022-12-07T00:01:35;101739.25;;;-1.43;100.00
43436;BME280;36399;51.444;-2.018;2022-12-07T00:04:03;101735.94;;;-1.52;100.00
43436;BME280;36399;51.444;-2.018;2022-12-07T00:06:32;101740.56;;;-1.48;100.00
43436;BME280;36399;51.444;-2.018;2022-12-07T00:08:59;101739.44;;;-1.30;100.00
43436;BME280;36399;51.444;-2.018;2022-12-07T00:11:25;101736.16;;;-1.39;100.00
43436;BME280;36399;51.444;-2.018;2022-12-07T00:13:53;101742.34;;;-1.47;100.00
43436;BME280;36399;51.444;-2.018;2022-12-07T00:16:21;101744.13;;;-1.36;100.00
43436;BME280;36399;51.444;-2.018;2022-12-07T00:18:47;101736.88;;;-1.30;100.00
43436;BME280;36399;51.444;-2.018;2022-12-07T00:21:31;101740.06;;;-1.22;100.00
43436;BME280;36399;51.444;-2.018;2022-12-07T00:23:57;101740.13;;;-1.10;100.00
43436;BME280;36399;51.444;-2.018;2022-12-07T00:26:26;101750.00;;;-1.27;100.00
43436;BME280;36399;51.444;-2.018;2022-12-07T00:28:54;101740.22;;;-1.31;100.00
43436;BME280;36399;51.444;-2.018;2022-12-07T00:31:24;101734.88;;;-1.44;100.00
43436;BME280;36399;51.444;-2.018;2022-12-07T00:33:51;101737.19;;;-1.47;100.00
43436;BME280;36399;51.444;-2.018;2022-12-07T00:36:19;101737.38;;;-1.55;100.00
43436;BME280;36399;51.444;-2.018;2022-12-07T00:38:45;101735.53;;;-1.56;100.00
43436;BME280;36399;51.444;-2.018;2022-12-07T00:41:14;101737.72;;;-1.51;100.00
43436;BME280;36399;51.444;-2.018;2022-12-07T00:43:41;101733.59;;;-1.49;100.00
43436;BME280;36399;51.444;-2.018;2022-12-07T00:46:08;101734.66;;;-1.67;100.00
43436;BME280;36399;51.444;-2.018;2022-12-07T00:48:34;101743.84;;;-1.81;100.00
43436;BME280;36399;51.444;-2.018;2022-12-07T00:51:00;101741.69;;;-1.97;100.00
43436;BME280;36399;51.444;-2.018;2022-12-07T00:53:27;101738.56;;;-2.13;100.00
43436;BME280;36399;51.444;-2.018;2022-12-07T00:55:53;101743.97;;;-2.30;100.00
43436;BME280;36399;51.444;-2.018;2022-12-07T00:58:21;101740.13;;;-2.45;100.00
43436;BME280;36399;51.444;-2.018;2022-12-07T01:00:47;101741.03;;;-2.45;100.00
43436;BME280;36399;51.444;-2.018;2022-12-07T01:03:16;101738.59;;;-2.23;100.00
43436;BME280;36399;51.444;-2.018;2022-12-07T01:05:53;101738.22;;;-2.07;100.00
43436;BME280;36399;51.444;-2.018;2022-12-07T01:08:20;101734.59;;;-2.19;100.00
43436;BME280;36399;51.444;-2.018;2022-12-07T01:10:47;101736.41;;;-2.29;100.00
43436;BME280;36399;51.444;-2.018;2022-12-07T01:13:13;101742.94;;;-2.12;100.00
43436;BME280;36399;51.444;-2.018;2022-12-07T01:15:40;101730.59;;;-2.26;100.00
43436;BME280;36399;51.444;-2.018;2022-12-07T01:18:10;101731.50;;;-2.15;100.00
43436;BME280;36399;51.444;-2.018;2022-12-07T01:20:37;101736.03;;;-2.03;100.00
43436;BME280;36399;51.444;-2.018;2022-12-07T01:23:03;101727.13;;;-2.16;100.00
43436;BME280;36399;51.444;-2.018;2022-12-07T01:25:29;101735.63;;;-2.28;100.00
43436;BME280;36399;51.444;-2.018;2022-12-07T01:27:56;101728.28;;;-2.33;100.00
43436;BME280;36399;51.444;-2.018;2022-12-07T01:30:21;101727.28;;;-2.35;100.00
43436;BME280;36399;51.444;-2.018;2022-12-07T01:32:48;101725.47;;;-2.46;100.00
43436;BME280;36399;51.444;-2.018;2022-12-07T01:35:13;101729.84;;;-2.45;100.00
43436;BME280;36399;51.444;-2.018;2022-12-07T01:37:39;101726.75;;;-2.41;100.00
43436;BME280;36399;51.444;-2.018;2022-12-07T01:40:07;101730.59;;;-2.26;100.00
43436;BME280;36399;51.444;-2.018;2022-12-07T01:42:34;101731.38;;;-2.17;100.00
43436;BME280;36399;51.444;-2.018;2022-12-07T01:47:48;101726.75;;;-2.11;100.00
43436;BME280;36399;51.444;-2.018;2022-12-07T01:50:16;101733.06;;;-2.07;100.00
43436;BME280;36399;51.444;-2.018;2022-12-07T01:52:44;101729.06;;;-2.04;100.00
43436;BME280;36399;51.444;-2.018;2022-12-07T01:55:15;101728.56;;;-2.00;100.00
43436;BME280;36399;51.444;-2.018;2022-12-07T01:57:46;101733.19;;;-2.16;100.00
43436;BME280;36399;51.444;-2.018;2022-12-07T02:00:13;101731.63;;;-2.14;100.00
43436;BME280;36399;51.444;-2.018;2022-12-07T02:02:53;101739.88;;;-2.18;100.00
43436;BME280;36399;51.444;-2.018;2022-12-07T02:05:21;101743.72;;;-2.33;100.00
43436;BME280;36399;51.444;-2.018;2022-12-07T02:07:51;101748.34;;;-2.09;100.00
43436;BME280;36399;51.444;-2.018;2022-12-07T02:10:20;101746.31;;;-2.03;100.00
43436;BME280;36399;51.444;-2.018;2022-12-07T02:12:51;101747.84;;;-2.25;100.00
43436;BME280;36399;51.444;-2.018;2022-12-07T02:15:21;101745.41;;;-2.24;100.00
43436;BME280;36399;51.444;-2.018;2022-12-07T02:18:00;101750.66;;;-2.22;100.00
43436;BME280;36399;51.444;-2.018;2022-12-07T02:21:08;101744.25;;;-2.37;100.00
43436;BME280;36399;51.444;-2.018;2022-12-07T02:29:01;101743.47;;;-2.46;100.00
43436;BME280;36399;51.444;-2.018;2022-12-07T02:31:32;101753.75;;;-2.57;100.00
43436;BME280;36399;51.444;-2.018;2022-12-07T02:34:07;101739.03;;;-2.68;100.00
43436;BME280;36399;51.444;-2.018;2022-12-07T02:36:40;101732.59;;;-2.83;100.00
43436;BME280;36399;51.444;-2.018;2022-12-07T02:39:16;101740.81;;;-2.87;100.00
43436;BME280;36399;51.444;-2.018;2022-12-07T02:41:53;101735.91;;;-2.94;100.00
43436;BME280;36399;51.444;-2.018;2022-12-07T02:44:24;101740.03;;;-2.96;100.00
43436;BME280;36399;51.444;-2.018;2022-12-07T02:46:55;101739.75;;;-2.99;100.00
43436;BME280;36399;51.444;-2.018;2022-12-07T02:49:26;101732.81;;;-3.00;100.00
43436;BME280;36399;51.444;-2.018;2022-12-07T02:51:53;101736.91;;;-3.02;100.00
43436;BME280;36399;51.444;-2.018;2022-12-07T02:54:20;101733.19;;;-3.06;100.00
43436;BME280;36399;51.444;-2.018;2022-12-07T02:57:00;101730.38;;;-2.99;100.00
43436;BME280;36399;51.444;-2.018;2022-12-07T03:10:57;101737.16;;;-3.38;100.00
43436;BME280;36399;51.444;-2.018;2022-12-07T03:13:34;101743.19;;;-3.38;100.00
43436;BME280;36399;51.444;-2.018;2022-12-07T03:16:18;101746.38;;;-3.40;100.00
43436;BME280;36399;51.444;-2.018;2022-12-07T03:18:54;101732.13;;;-3.47;100.00
43436;BME280;36399;51.444;-2.018;2022-12-07T03:21:25;101738.69;;;-3.40;100.00
43436;BME280;36399;51.444;-2.018;2022-12-07T03:23:56;101721.28;;;-3.24;100.00
43436;BME280;36399;51.444;-2.018;2022-12-07T03:26:32;101741.09;;;-3.13;100.00
43436;BME280;36399;51.444;-2.018;2022-12-07T03:29:05;101731.56;;;-2.85;100.00
43436;BME280;36399;51.444;-2.018;2022-12-07T03:31:36;101734.16;;;-2.65;100.00
43436;BME280;36399;51.444;-2.018;2022-12-07T03:34:24;101737.00;;;-2.62;100.00
43436;BME280;36399;51.444;-2.018;2022-12-07T03:36:58;101728.00;;;-2.67;100.00
43436;BME280;36399;51.444;-2.018;2022-12-07T03:39:27;101730.78;;;-2.84;100.00
43436;BME280;36399;51.444;-2.018;2022-12-07T03:41:57;101729.22;;;-3.02;100.00
43436;BME280;36399;51.444;-2.018;2022-12-07T03:44:25;101724.19;;;-3.11;100.00
43436;BME280;36399;51.444;-2.018;2022-12-07T03:47:08;101730.66;;;-3.25;100.00
43436;BME280;36399;51.444;-2.018;2022-12-07T03:49:45;101719.47;;;-3.25;100.00
43436;BME280;36399;51.444;-2.018;2022-12-07T03:52:28;101721.41;;;-3.23;100.00
43436;BME280;36399;51.444;-2.018;2022-12-07T03:55:23;101732.19;;;-3.27;100.00
43436;BME280;36399;51.444;-2.018;2022-12-07T03:57:53;101728.56;;;-3.39;100.00
43436;BME280;36399;51.444;-2.018;2022-12-07T04:00:21;101730.59;;;-3.45;100.00
43436;BME280;36399;51.444;-2.018;2022-12-07T04:02:47;101726.16;;;-3.56;100.00
43436;BME280;36399;51.444;-2.018;2022-12-07T04:05:13;101730.13;;;-3.60;100.00
43436;BME280;36399;51.444;-2.018;2022-12-07T04:07:39;101723.81;;;-3.63;100.00
43436;BME280;36399;51.444;-2.018;2022-12-07T04:10:06;101733.50;;;-3.69;100.00
43436;BME280;36399;51.444;-2.018;2022-12-07T04:12:35;101730.25;;;-3.77;100.00
43436;BME280;36399;51.444;-2.018;2022-12-07T04:15:03;101730.88;;;-3.79;100.00
43436;BME280;36399;51.444;-2.018;2022-12-07T04:17:29;101728.19;;;-3.81;100.00
43436;BME280;36399;51.444;-2.018;2022-12-07T04:19:55;101720.50;;;-3.81;100.00
43436;BME280;36399;51.444;-2.018;2022-12-07T04:22:21;101716.25;;;-3.81;100.00
43436;BME280;36399;51.444;-2.018;2022-12-07T04:24:47;101728.53;;;-3.87;100.00
43436;BME280;36399;51.444;-2.018;2022-12-07T04:27:13;101724.78;;;-3.90;100.00
43436;BME280;36399;51.444;-2.018;2022-12-07T04:29:39;101728.75;;;-3.94;100.00
43436;BME280;36399;51.444;-2.018;2022-12-07T04:32:05;101734.91;;;-3.92;100.00
43436;BME280;36399;51.444;-2.018;2022-12-07T04:34:31;101730.97;;;-3.88;100.00
43436;BME280;36399;51.444;-2.018;2022-12-07T04:36:57;101717.25;;;-3.89;100.00
43436;BME280;36399;51.444;-2.018;2022-12-07T04:39:28;101718.13;;;-3.88;100.00
43436;BME280;36399;51.444;-2.018;2022-12-07T04:41:55;101716.13;;;-3.82;100.00
43436;BME280;36399;51.444;-2.018;2022-12-07T04:44:22;101722.78;;;-3.84;100.00
43436;BME280;36399;51.444;-2.018;2022-12-07T04:46:49;101715.56;;;-3.88;100.00
43436;BME280;36399;51.444;-2.018;2022-12-07T04:49:16;101713.72;;;-3.99;100.00
43436;BME280;36399;51.444;-2.018;2022-12-07T04:51:43;101710.53;;;-3.97;100.00
43436;BME280;36399;51.444;-2.018;2022-12-07T04:54:10;101718.00;;;-3.90;100.00
43436;BME280;36399;51.444;-2.018;2022-12-07T04:56:36;101727.00;;;-3.85;100.00
43436;BME280;36399;51.444;-2.018;2022-12-07T04:59:02;101728.09;;;-3.72;100.00
43436;BME280;36399;51.444;-2.018;2022-12-07T05:01:29;101715.91;;;-3.56;100.00
43436;BME280;36399;51.444;-2.018;2022-12-07T05:03:55;101721.56;;;-3.50;100.00
43436;BME280;36399;51.444;-2.018;2022-12-07T05:06:21;101719.94;;;-3.39;100.00
43436;BME280;36399;51.444;-2.018;2022-12-07T05:08:47;101709.22;;;-3.25;100.00
43436;BME280;36399;51.444;-2.018;2022-12-07T05:11:14;101711.81;;;-3.15;100.00
43436;BME280;36399;51.444;-2.018;2022-12-07T05:14:02;101716.13;;;-2.95;100.00
43436;BME280;36399;51.444;-2.018;2022-12-07T05:16:29;101713.97;;;-2.80;100.00
43436;BME280;36399;51.444;-2.018;2022-12-07T05:18:55;101715.53;;;-2.62;100.00
43436;BME280;36399;51.444;-2.018;2022-12-07T05:21:21;101712.09;;;-2.42;100.00
43436;BME280;36399;51.444;-2.018;2022-12-07T05:23:47;101703.34;;;-2.34;100.00
43436;BME280;36399;51.444;-2.018;2022-12-07T05:26:13;101712.47;;;-2.28;100.00
43436;BME280;36399;51.444;-2.018;2022-12-07T05:28:39;101714.28;;;-2.27;100.00
43436;BME280;36399;51.444;-2.018;2022-12-07T05:31:05;101715.44;;;-2.03;100.00
43436;BME280;36399;51.444;-2.018;2022-12-07T05:33:31;101710.03;;;-1.96;100.00
43436;BME280;36399;51.444;-2.018;2022-12-07T05:35:57;101705.91;;;-1.94;100.00
43436;BME280;36399;51.444;-2.018;2022-12-07T05:38:23;101713.50;;;-2.05;100.00
43436;BME280;36399;51.444;-2.018;2022-12-07T05:40:50;101710.66;;;-2.08;100.00
43436;BME280;36399;51.444;-2.018;2022-12-07T05:43:16;101713.09;;;-2.10;100.00
43436;BME280;36399;51.444;-2.018;2022-12-07T05:45:42;101714.41;;;-2.15;100.00
43436;BME280;36399;51.444;-2.018;2022-12-07T05:48:08;101711.06;;;-2.14;100.00
43436;BME280;36399;51.444;-2.018;2022-12-07T05:50:34;101718.50;;;-2.17;100.00
43436;BME280;36399;51.444;-2.018;2022-12-07T05:53:00;101715.03;;;-2.17;100.00
43436;BME280;36399;51.444;-2.018;2022-12-07T05:55:26;101709.91;;;-2.17;100.00
43436;BME280;36399;51.444;-2.018;2022-12-07T05:57:52;101706.41;;;-2.18;100.00
43436;BME280;36399;51.444;-2.018;2022-12-07T06:00:36;101700.50;;;-2.17;100.00
43436;BME280;36399;51.444;-2.018;2022-12-07T06:03:02;101701.16;;;-2.19;100.00
43436;BME280;36399;51.444;-2.018;2022-12-07T06:05:28;101709.66;;;-2.20;100.00
43436;BME280;36399;51.444;-2.018;2022-12-07T06:07:54;101705.16;;;-2.23;100.00
43436;BME280;36399;51.444;-2.018;2022-12-07T06:10:20;101703.09;;;-2.27;100.00
43436;BME280;36399;51.444;-2.018;2022-12-07T06:12:46;101699.25;;;-2.32;100.00
43436;BME280;36399;51.444;-2.018;2022-12-07T06:15:12;101700.91;;;-2.33;100.00
43436;BME280;36399;51.444;-2.018;2022-12-07T06:17:39;101707.22;;;-2.39;100.00
43436;BME280;36399;51.444;-2.018;2022-12-07T06:20:07;101707.72;;;-2.43;100.00
43436;BME280;36399;51.444;-2.018;2022-12-07T06:22:33;101707.72;;;-2.53;100.00
43436;BME280;36399;51.444;-2.018;2022-12-07T06:24:58;101712.88;;;-2.53;100.00
43436;BME280;36399;51.444;-2.018;2022-12-07T06:27:26;101711.16;;;-2.63;100.00
43436;BME280;36399;51.444;-2.018;2022-12-07T06:29:52;101715.25;;;-2.75;100.00
43436;BME280;36399;51.444;-2.018;2022-12-07T06:32:18;101711.28;;;-2.72;100.00
43436;BME280;36399;51.444;-2.018;2022-12-07T06:34:44;101713.84;;;-2.82;100.00
43436;BME280;36399;51.444;-2.018;2022-12-07T06:37:10;101713.84;;;-2.82;100.00
43436;BME280;36399;51.444;-2.018;2022-12-07T06:39:36;101711.78;;;-2.86;100.00
43436;BME280;36399;51.444;-2.018;2022-12-07T06:42:02;101711.63;;;-2.98;100.00
43436;BME280;36399;51.444;-2.018;2022-12-07T06:44:27;101703.13;;;-3.07;100.00
43436;BME280;36399;51.444;-2.018;2022-12-07T06:46:53;101713.81;;;-3.02;100.00
43436;BME280;36399;51.444;-2.018;2022-12-07T06:49:19;101713.28;;;-3.08;100.00
43436;BME280;36399;51.444;-2.018;2022-12-07T06:51:45;101709.09;;;-3.17;100.00
43436;BME280;36399;51.444;-2.018;2022-12-07T06:54:13;101712.72;;;-3.14;100.00
43436;BME280;36399;51.444;-2.018;2022-12-07T06:56:39;101708.31;;;-3.26;100.00
43436;BME280;36399;51.444;-2.018;2022-12-07T06:59:06;101718.56;;;-3.36;100.00
43436;BME280;36399;51.444;-2.018;2022-12-07T07:01:34;101716.72;;;-3.47;100.00
43436;BME280;36399;51.444;-2.018;2022-12-07T07:04:01;101725.91;;;-3.59;100.00
43436;BME280;36399;51.444;-2.018;2022-12-07T07:06:27;101723.88;;;-3.72;100.00
43436;BME280;36399;51.444;-2.018;2022-12-07T07:08:53;101725.75;;;-3.79;100.00
43436;BME280;36399;51.444;-2.018;2022-12-07T07:11:19;101723.41;;;-3.87;100.00
43436;BME280;36399;51.444;-2.018;2022-12-07T07:13:45;101719.25;;;-3.95;100.00
43436;BME280;36399;51.444;-2.018;2022-12-07T07:16:12;101715.66;;;-3.97;100.00
43436;BME280;36399;51.444;-2.018;2022-12-07T07:18:38;101715.66;;;-3.97;100.00
43436;BME280;36399;51.444;-2.018;2022-12-07T07:21:04;101716.06;;;-3.92;100.00
43436;BME280;36399;51.444;-2.018;2022-12-07T07:23:30;101715.84;;;-3.85;100.00
43436;BME280;36399;51.444;-2.018;2022-12-07T07:25:56;101714.72;;;-3.60;100.00
43436;BME280;36399;51.444;-2.018;2022-12-07T07:28:22;101718.50;;;-3.46;100.00
43436;BME280;36399;51.444;-2.018;2022-12-07T07:30:48;101714.28;;;-3.45;100.00
43436;BME280;36399;51.444;-2.018;2022-12-07T07:33:14;101720.94;;;-3.47;100.00
43436;BME280;36399;51.444;-2.018;2022-12-07T07:35:41;101726.56;;;-3.52;100.00
43436;BME280;36399;51.444;-2.018;2022-12-07T07:38:07;101725.50;;;-3.64;100.00
43436;BME280;36399;51.444;-2.018;2022-12-07T07:40:34;101736.28;;;-3.76;100.00
43436;BME280;36399;51.444;-2.018;2022-12-07T07:43:00;101735.19;;;-3.89;100.00
43436;BME280;36399;51.444;-2.018;2022-12-07T07:45:27;101731.31;;;-3.94;100.00
43436;BME280;36399;51.444;-2.018;2022-12-07T07:47:53;101727.44;;;-3.99;100.00
43436;BME280;36399;51.444;-2.018;2022-12-07T07:50:20;101734.78;;;-4.12;100.00
43436;BME280;36399;51.444;-2.018;2022-12-07T07:52:46;101730.59;;;-4.20;100.00
43436;BME280;36399;51.444;-2.018;2022-12-07T07:55:13;101728.03;;;-4.20;100.00
43436;BME280;36399;51.444;-2.018;2022-12-07T07:57:40;101724.63;;;-4.29;100.00
43436;BME280;36399;51.444;-2.018;2022-12-07T08:00:13;101729.69;;;-4.21;100.00
43436;BME280;36399;51.444;-2.018;2022-12-07T08:02:40;101727.50;;;-4.07;100.00
43436;BME280;36399;51.444;-2.018;2022-12-07T08:05:07;101735.97;;;-3.90;100.00
43436;BME280;36399;51.444;-2.018;2022-12-07T08:07:33;101732.97;;;-3.75;100.00
43436;BME280;36399;51.444;-2.018;2022-12-07T08:09:59;101732.56;;;-3.61;100.00
43436;BME280;36399;51.444;-2.018;2022-12-07T08:12:25;101735.66;;;-3.55;100.00
43436;BME280;36399;51.444;-2.018;2022-12-07T08:14:52;101743.28;;;-3.65;100.00
43436;BME280;36399;51.444;-2.018;2022-12-07T08:17:18;101744.03;;;-3.66;100.00
43436;BME280;36399;51.444;-2.018;2022-12-07T08:19:46;101747.66;;;-3.64;100.00
43436;BME280;36399;51.444;-2.018;2022-12-07T08:22:11;101743.00;;;-3.68;100.00
43436;BME280;36399;51.444;-2.018;2022-12-07T08:24:37;101744.34;;;-3.63;100.00
43436;BME280;36399;51.444;-2.018;2022-12-07T08:27:03;101746.91;;;-3.63;100.00
43436;BME280;36399;51.444;-2.018;2022-12-07T08:29:29;101739.63;;;-3.59;100.00
43436;BME280;36399;51.444;-2.018;2022-12-07T08:31:55;101750.38;;;-3.63;100.00
43436;BME280;36399;51.444;-2.018;2022-12-07T08:34:21;101758.69;;;-3.65;100.00
43436;BME280;36399;51.444;-2.018;2022-12-07T08:36:47;101747.38;;;-3.67;100.00
43436;BME280;36399;51.444;-2.018;2022-12-07T08:39:13;101750.72;;;-3.68;100.00
43436;BME280;36399;51.444;-2.018;2022-12-07T08:41:39;101748.50;;;-3.55;100.00
43436;BME280;36399;51.444;-2.018;2022-12-07T08:44:05;101751.38;;;-3.42;100.00
43436;BME280;36399;51.444;-2.018;2022-12-07T08:46:41;101741.78;;;-3.34;100.00
43436;BME280;36399;51.444;-2.018;2022-12-07T08:49:15;101737.31;;;-3.27;100.00
43436;BME280;36399;51.444;-2.018;2022-12-07T08:51:43;101731.97;;;-3.20;100.00
43436;BME280;36399;51.444;-2.018;2022-12-07T08:54:11;101735.88;;;-3.04;100.00
43436;BME280;36399;51.444;-2.018;2022-12-07T08:56:40;101740.66;;;-2.99;100.00
43436;BME280;36399;51.444;-2.018;2022-12-07T08:59:06;101736.69;;;-2.95;100.00
43436;BME280;36399;51.444;-2.018;2022-12-07T09:01:33;101737.44;;;-2.96;100.00
43436;BME280;36399;51.444;-2.018;2022-12-07T09:03:58;101731.81;;;-2.92;100.00
43436;BME280;36399;51.444;-2.018;2022-12-07T09:06:25;101731.81;;;-2.92;100.00
43436;BME280;36399;51.444;-2.018;2022-12-07T09:08:54;101731.69;;;-2.94;100.00
43436;BME280;36399;51.444;-2.018;2022-12-07T09:11:21;101729.75;;;-2.96;100.00
43436;BME280;36399;51.444;-2.018;2022-12-07T09:13:47;101732.44;;;-2.95;100.00
43436;BME280;36399;51.444;-2.018;2022-12-07T09:16:13;101734.91;;;-2.86;100.00
43436;BME280;36399;51.444;-2.018;2022-12-07T09:18:40;101731.84;;;-2.72;100.00
43436;BME280;36399;51.444;-2.018;2022-12-07T09:21:06;101737.00;;;-2.62;100.00
43436;BME280;36399;51.444;-2.018;2022-12-07T09:23:31;101734.22;;;-2.55;100.00
43436;BME280;36399;51.444;-2.018;2022-12-07T09:26:02;101735.25;;;-2.52;100.00
43436;BME280;36399;51.444;-2.018;2022-12-07T09:28:28;101729.31;;;-2.51;100.00
43436;BME280;36399;51.444;-2.018;2022-12-07T09:30:54;101738.84;;;-2.50;100.00
43436;BME280;36399;51.444;-2.018;2022-12-07T09:33:20;101730.88;;;-2.43;100.00
43436;BME280;36399;51.444;-2.018;2022-12-07T09:35:47;101728.03;;;-2.36;100.00
43436;BME280;36399;51.444;-2.018;2022-12-07T09:38:14;101735.25;;;-2.32;100.00
43436;BME280;36399;51.444;-2.018;2022-12-07T09:40:40;101738.84;;;-2.30;100.00
43436;BME280;36399;51.444;-2.018;2022-12-07T09:43:13;101736.66;;;-2.26;100.00
43436;BME280;36399;51.444;-2.018;2022-12-07T09:45:42;101735.25;;;-2.22;100.00
43436;BME280;36399;51.444;-2.018;2022-12-07T09:48:18;101733.94;;;-2.17;100.00
43436;BME280;36399;51.444;-2.018;2022-12-07T09:50:46;101743.72;;;-2.13;100.00
43436;BME280;36399;51.444;-2.018;2022-12-07T09:53:23;101740.16;;;-2.05;100.00
43436;BME280;36399;51.444;-2.018;2022-12-07T09:55:51;101732.59;;;-1.61;100.00
43436;BME280;36399;51.444;-2.018;2022-12-07T09:58:25;101728.94;;;-0.45;100.00
43436;BME280;36399;51.444;-2.018;2022-12-07T10:00:58;101724.50;;;0.68;100.00
43436;BME280;36399;51.444;-2.018;2022-12-07T10:03:28;101720.22;;;1.53;100.00
43436;BME280;36399;51.444;-2.018;2022-12-07T10:05:55;101709.28;;;2.33;100.00
43436;BME280;36399;51.444;-2.018;2022-12-07T10:08:21;101708.41;;;3.13;100.00
43436;BME280;36399;51.444;-2.018;2022-12-07T10:10:52;101695.34;;;4.27;100.00
43436;BME280;36399;51.444;-2.018;2022-12-07T10:13:33;101692.38;;;4.35;100.00
43436;BME280;36399;51.444;-2.018;2022-12-07T10:15:59;101689.50;;;4.16;100.00
43436;BME280;36399;51.444;-2.018;2022-12-07T10:18:41;101682.91;;;4.67;100.00
43436;BME280;36399;51.444;-2.018;2022-12-07T10:21:16;101676.34;;;5.37;100.00
43436;BME280;36399;51.444;-2.018;2022-12-07T10:23:59;101668.66;;;5.89;100.00
43436;BME280;36399;51.444;-2.018;2022-12-07T10:26:38;101659.66;;;6.52;100.00
43436;BME280;36399;51.444;-2.018;2022-12-07T10:29:19;101651.41;;;6.97;100.00
43436;BME280;36399;51.444;-2.018;2022-12-07T10:31:59;101642.13;;;7.04;100.00
43436;BME280;36399;51.444;-2.018;2022-12-07T10:34:34;101641.66;;;7.13;100.00
43436;BME280;36399;51.444;-2.018;2022-12-07T10:37:14;101634.22;;;7.60;100.00
43436;BME280;36399;51.444;-2.018;2022-12-07T10:45:02;101614.19;;;8.43;100.00
43436;BME280;36399;51.444;-2.018;2022-12-07T10:50:41;101609.88;;;7.62;100.00
43436;BME280;36399;51.444;-2.018;2022-12-07T10:55:58;101596.44;;;8.80;100.00
43436;BME280;36399;51.444;-2.018;2022-12-07T11:12:39;101540.63;;;9.80;100.00
43436;BME280;36399;51.444;-2.018;2022-12-07T11:23:53;101388.25;;;9.17;100.00
43436;BME280;36399;51.444;-2.018;2022-12-07T11:34:31;101367.38;;;7.53;100.00
43436;BME280;36399;51.444;-2.018;2022-12-07T11:37:01;101362.97;;;7.09;100.00
43436;BME280;36399;51.444;-2.018;2022-12-07T11:39:41;101360.03;;;6.80;100.00
43436;BME280;36399;51.444;-2.018;2022-12-07T11:42:14;101362.78;;;5.87;100.00
43436;BME280;36399;51.444;-2.018;2022-12-07T11:49:54;101381.34;;;4.86;100.00
43436;BME280;36399;51.444;-2.018;2022-12-07T11:52:29;101384.25;;;5.10;100.00
43436;BME280;36399;51.444;-2.018;2022-12-07T11:54:57;101378.53;;;4.99;100.00
43436;BME280;36399;51.444;-2.018;2022-12-07T11:57:33;101385.25;;;4.78;100.00
43436;BME280;36399;51.444;-2.018;2022-12-07T12:00:04;101368.03;;;4.30;100.00
43436;BME280;36399;51.444;-2.018;2022-12-07T12:02:41;101364.75;;;4.34;100.00
43436;BME280;36399;51.444;-2.018;2022-12-07T12:05:17;101365.41;;;4.46;100.00
43436;BME280;36399;51.444;-2.018;2022-12-07T12:07:45;101368.28;;;4.18;100.00
43436;BME280;36399;51.444;-2.018;2022-12-07T12:10:24;101372.16;;;4.26;100.00
43436;BME280;36399;51.444;-2.018;2022-12-07T12:13:10;101371.94;;;4.22;100.00
43436;BME280;36399;51.444;-2.018;2022-12-07T12:18:32;101375.91;;;4.31;100.00
43436;BME280;36399;51.444;-2.018;2022-12-07T12:21:08;101374.75;;;4.42;100.00
43436;BME280;36399;51.444;-2.018;2022-12-07T12:26:23;101360.66;;;4.55;100.00
43436;BME280;36399;51.444;-2.018;2022-12-07T12:33:48;101333.75;;;4.21;100.00
43436;BME280;36399;51.444;-2.018;2022-12-07T12:59:32;101297.63;;;3.93;100.00
43436;BME280;36399;51.444;-2.018;2022-12-07T13:04:50;101296.63;;;3.58;100.00
43436;BME280;36399;51.444;-2.018;2022-12-07T13:15:46;101289.81;;;3.93;100.00
43436;BME280;36399;51.444;-2.018;2022-12-07T13:26:23;101269.84;;;3.92;100.00
43436;BME280;36399;51.444;-2.018;2022-12-07T13:31:47;101267.22;;;4.08;100.00
43436;BME280;36399;51.444;-2.018;2022-12-07T13:34:35;101259.66;;;4.29;100.00
43436;BME280;36399;51.444;-2.018;2022-12-07T13:37:10;101247.84;;;4.18;100.00
43436;BME280;36399;51.444;-2.018;2022-12-07T13:39:46;101242.03;;;3.89;100.00
43436;BME280;36399;51.444;-2.018;2022-12-07T13:44:56;101241.53;;;3.96;100.00
43436;BME280;36399;51.444;-2.018;2022-12-07T13:49:54;101238.13;;;3.81;100.00
43436;BME280;36399;51.444;-2.018;2022-12-07T13:52:26;101238.38;;;3.53;100.00
43436;BME280;36399;51.444;-2.018;2022-12-07T13:54:59;101230.91;;;3.43;100.00
43436;BME280;36399;51.444;-2.018;2022-12-07T13:57:27;101228.31;;;3.27;100.00
43436;BME280;36399;51.444;-2.018;2022-12-07T13:59:54;101227.44;;;3.11;100.00
43436;BME280;36399;51.444;-2.018;2022-12-07T14:02:25;101221.38;;;2.80;100.00
43436;BME280;36399;51.444;-2.018;2022-12-07T14:04:52;101227.13;;;2.74;100.00
43436;BME280;36399;51.444;-2.018;2022-12-07T14:07:33;101233.06;;;2.42;100.00
43436;BME280;36399;51.444;-2.018;2022-12-07T14:10:02;101222.25;;;2.20;100.00
43436;BME280;36399;51.444;-2.018;2022-12-07T14:12:30;101227.31;;;2.04;100.00
43436;BME280;36399;51.444;-2.018;2022-12-07T14:14:58;101232.75;;;1.79;100.00
43436;BME280;36399;51.444;-2.018;2022-12-07T14:17:26;101241.28;;;1.63;100.00
43436;BME280;36399;51.444;-2.018;2022-12-07T14:19:57;101242.31;;;1.52;100.00
43436;BME280;36399;51.444;-2.018;2022-12-07T14:22:27;101236.09;;;1.35;100.00
43436;BME280;36399;51.444;-2.018;2022-12-07T14:28:09;101229.59;;;1.14;100.00
43436;BME280;36399;51.444;-2.018;2022-12-07T14:30:34;101229.78;;;1.04;100.00
43436;BME280;36399;51.444;-2.018;2022-12-07T14:33:03;101230.50;;;1.01;100.00
43436;BME280;36399;51.444;-2.018;2022-12-07T14:35:31;101232.50;;;1.05;100.00
43436;BME280;36399;51.444;-2.018;2022-12-07T14:37:57;101230.91;;;1.07;100.00
43436;BME280;36399;51.444;-2.018;2022-12-07T14:40:26;101240.47;;;1.08;100.00
43436;BME280;36399;51.444;-2.018;2022-12-07T14:42:59;101237.56;;;1.17;100.00
43436;BME280;36399;51.444;-2.018;2022-12-07T14:45:29;101242.03;;;1.19;100.00
43436;BME280;36399;51.444;-2.018;2022-12-07T14:47:55;101237.84;;;1.21;100.00
43436;BME280;36399;51.444;-2.018;2022-12-07T14:50:21;101245.41;;;1.18;100.00
43436;BME280;36399;51.444;-2.018;2022-12-07T14:53:00;101244.59;;;1.19;100.00
43436;BME280;36399;51.444;-2.018;2022-12-07T14:55:29;101250.56;;;1.18;100.00